createdAt,value
2022-07-30T06:07:30.799Z,100.00
2022-07-30T06:10:12.231Z,100.00
2022-07-30T06:12:49.249Z,100.00
2022-07-30T06:15:28.748Z,100.00
2022-07-30T06:18:05.628Z,100.00
2022-07-30T06:20:57.474Z,100.00
2022-07-30T06:23:59.016Z,100.00
2022-07-30T06:27:05.206Z,100.00
2022-07-30T06:29:42.513Z,100.00
2022-07-30T06:32:21.000Z,100.00
2022-07-30T06:35:04.334Z,100.00
2022-07-30T06:38:05.665Z,100.00
2022-07-30T06:40:43.553Z,100.00
2022-07-30T06:43:28.509Z,100.00
2022-07-30T06:46:17.912Z,100.00
2022-07-30T06:48:59.642Z,100.00
2022-07-30T06:51:37.181Z,100.00
2022-07-30T06:54:14.898Z,100.00
2022-07-30T06:57:26.881Z,100.00
2022-07-30T07:00:04.596Z,100.00
2022-07-30T07:02:46.464Z,100.00
2022-07-30T07:05:29.679Z,100.00
2022-07-30T07:08:08.466Z,100.00
2022-07-30T07:10:50.279Z,100.00
2022-07-30T07:13:44.523Z,100.00
2022-07-30T07:16:28.179Z,100.00
2022-07-30T07:19:06.045Z,100.00
2022-07-30T07:21:43.223Z,100.00
2022-07-30T07:24:20.323Z,100.00
2022-07-30T07:27:16.543Z,100.00
2022-07-30T07:30:05.063Z,100.00
2022-07-30T07:32:45.933Z,100.00
2022-07-30T07:35:23.983Z,100.00
2022-07-30T07:38:01.320Z,100.00
2022-07-30T07:40:39.659Z,100.00
2022-07-30T07:43:16.707Z,100.00
2022-07-30T07:45:57.144Z,100.00
2022-07-30T07:48:37.070Z,100.00
2022-07-30T07:51:46.750Z,100.00
2022-07-30T07:54:27.569Z,100.00
2022-07-30T07:57:10.410Z,100.00
2022-07-30T07:59:54.614Z,100.00
2022-07-30T08:02:39.625Z,100.00
2022-07-30T08:05:19.540Z,100.00
2022-07-30T08:07:56.230Z,100.00
2022-07-30T08:10:51.539Z,100.00
2022-07-30T08:13:54.413Z,100.00
2022-07-30T08:17:00.999Z,100.00
2022-07-30T08:20:11.908Z,100.00
2022-07-30T08:22:48.946Z,100.00
2022-07-30T08:25:26.537Z,100.00
2022-07-30T08:28:03.852Z,100.00
2022-07-30T08:30:40.895Z,100.00
2022-07-30T08:33:17.883Z,100.00
2022-07-30T08:36:03.956Z,100.00
2022-07-30T08:38:43.298Z,100.00
2022-07-30T08:41:23.069Z,100.00
2022-07-30T08:44:02.813Z,100.00
2022-07-30T08:46:47.467Z,100.00
2022-07-30T08:49:53.048Z,100.00
2022-07-30T08:52:39.419Z,100.00
2022-07-30T08:55:18.880Z,98.75
2022-07-30T08:57:55.848Z,96.70
2022-07-30T09:00:34.462Z,93.61
2022-07-30T09:03:11.200Z,95.86
2022-07-30T09:05:48.409Z,97.15
2022-07-30T09:08:28.518Z,96.64
2022-07-30T09:11:06.138Z,93.30
2022-07-30T09:13:44.924Z,88.63
2022-07-30T09:16:25.520Z,87.62
2022-07-30T09:19:16.983Z,85.67
2022-07-30T09:22:03.561Z,87.59
2022-07-30T09:25:15.795Z,82.96
2022-07-30T09:28:33.503Z,79.13
2022-07-30T09:31:26.421Z,77.51
2022-07-30T09:34:30.920Z,75.49
2022-07-30T09:37:30.759Z,72.80
2022-07-30T09:40:32.383Z,69.92
2022-07-30T09:43:30.981Z,69.13
2022-07-30T09:46:20.903Z,70.46
2022-07-30T09:49:18.980Z,65.51
2022-07-30T09:51:59.201Z,69.33
2022-07-30T09:54:54.344Z,69.76
2022-07-30T09:57:37.463Z,71.51
2022-07-30T10:00:30.072Z,71.77
2022-07-30T10:03:46.615Z,72.80
2022-07-30T10:06:42.518Z,72.97
2022-07-30T10:09:33.040Z,71.49
2022-07-30T10:12:16.780Z,64.07
2022-07-30T10:15:02.204Z,69.10
2022-07-30T10:17:43.803Z,70.37
2022-07-30T10:20:37.444Z,69.79
2022-07-30T10:23:44.333Z,69.23
2022-07-30T10:26:51.323Z,67.42
2022-07-30T10:29:47.065Z,67.57
2022-07-30T10:32:30.979Z,69.40
2022-07-30T10:35:09.482Z,64.69
2022-07-30T10:37:53.176Z,65.64
2022-07-30T10:40:35.990Z,67.34
2022-07-30T10:44:09.811Z,65.85
2022-07-30T10:46:59.501Z,65.07
2022-07-30T10:50:15.693Z,65.47
2022-07-30T10:52:55.879Z,64.15
2022-07-30T10:55:38.954Z,63.77
2022-07-30T10:58:22.879Z,64.41
2022-07-30T11:01:03.509Z,65.00
2022-07-30T11:03:45.093Z,58.87
2022-07-30T11:06:34.326Z,61.33
2022-07-30T11:09:41.849Z,66.32
2022-07-30T11:12:39.317Z,58.58
2022-07-30T11:15:19.082Z,55.91
2022-07-30T11:18:11.339Z,58.72
2022-07-30T11:21:24.194Z,56.01
2022-07-30T11:24:04.590Z,57.79
2022-07-30T11:26:56.666Z,59.10
2022-07-30T11:29:50.492Z,55.94
2022-07-30T11:32:32.090Z,52.85
2022-07-30T11:35:24.549Z,54.72
2022-07-30T11:38:12.487Z,54.75
2022-07-30T11:41:15.927Z,50.87
2022-07-30T11:44:12.717Z,52.26
2022-07-30T11:46:52.778Z,51.53
2022-07-30T11:49:37.667Z,51.88
2022-07-30T11:52:15.284Z,52.83
2022-07-30T11:54:56.647Z,56.15
2022-07-30T11:57:46.865Z,54.01
2022-07-30T12:00:24.335Z,53.84
2022-07-30T12:03:03.953Z,55.05
2022-07-30T12:05:41.676Z,50.00
2022-07-30T12:08:31.648Z,48.38
2022-07-30T12:11:13.798Z,49.36
2022-07-30T12:14:04.528Z,48.56
2022-07-30T12:16:42.711Z,51.33
2022-07-30T12:19:19.979Z,52.14
2022-07-30T12:22:01.676Z,55.46
2022-07-30T12:24:38.897Z,55.69
2022-07-30T12:27:16.087Z,55.44
2022-07-30T12:29:55.809Z,55.73
2022-07-30T12:32:32.721Z,56.11
2022-07-30T12:35:10.728Z,54.78
2022-07-30T12:38:07.688Z,54.12
2022-07-30T12:41:00.329Z,54.30
2022-07-30T12:43:59.212Z,53.50
2022-07-30T12:46:44.392Z,53.99
2022-07-30T12:49:22.795Z,53.92
2022-07-30T12:52:00.764Z,54.15
2022-07-30T12:54:37.787Z,54.08
2022-07-30T12:57:14.816Z,55.11
2022-07-30T13:00:03.738Z,55.88
2022-07-30T13:02:43.587Z,54.48
2022-07-30T13:05:20.625Z,53.42
2022-07-30T13:08:00.820Z,51.75
2022-07-30T13:10:37.645Z,51.29
2022-07-30T13:13:14.806Z,51.83
2022-07-30T13:16:03.293Z,52.67
2022-07-30T13:18:43.434Z,53.87
2022-07-30T13:21:20.166Z,55.14
2022-07-30T13:23:57.436Z,55.68
2022-07-30T13:26:35.947Z,56.34
2022-07-30T13:29:13.836Z,55.63
2022-07-30T13:31:50.743Z,56.37
2022-07-30T13:34:30.435Z,56.76
2022-07-30T13:37:07.175Z,55.53
2022-07-30T13:39:44.304Z,56.48
2022-07-30T13:42:21.004Z,56.53
2022-07-30T13:44:58.676Z,56.62
2022-07-30T13:47:36.096Z,57.44
2022-07-30T13:50:15.976Z,57.06
2022-07-30T13:52:52.896Z,57.74
2022-07-30T13:55:30.544Z,58.30
2022-07-30T13:58:07.435Z,58.26
2022-07-30T14:00:45.533Z,58.77
2022-07-30T14:03:22.359Z,60.18
2022-07-30T14:06:11.139Z,60.39
2022-07-30T14:08:48.936Z,61.36
2022-07-30T14:11:26.513Z,61.71
2022-07-30T14:14:03.260Z,60.13
2022-07-30T14:16:45.627Z,59.10
2022-07-30T14:19:24.364Z,58.21
2022-07-30T14:22:04.769Z,57.14
2022-07-30T14:24:42.130Z,58.70
2022-07-30T14:27:23.642Z,57.72
2022-07-30T14:30:00.460Z,57.98
2022-07-30T14:32:38.091Z,58.85
2022-07-30T14:35:15.703Z,57.99
2022-07-30T14:37:55.372Z,58.52
2022-07-30T14:40:32.398Z,59.54
2022-07-30T14:43:09.560Z,59.37
2022-07-30T14:45:50.838Z,61.65
2022-07-30T14:48:27.908Z,61.77
2022-07-30T14:51:17.938Z,62.51
2022-07-30T14:54:01.740Z,64.50
2022-07-30T14:56:38.407Z,66.22
2022-07-30T14:59:15.367Z,66.83
2022-07-30T15:01:52.985Z,66.88
2022-07-30T15:04:30.126Z,67.07
2022-07-30T15:07:06.965Z,68.17
2022-07-30T15:09:46.727Z,67.44
2022-07-30T15:12:27.178Z,66.81
2022-07-30T15:15:04.407Z,66.62
2022-07-30T15:17:43.306Z,66.31
2022-07-30T15:20:20.349Z,64.94
2022-07-30T15:22:57.288Z,64.98
2022-07-30T15:25:36.975Z,65.66
2022-07-30T15:28:13.827Z,66.17
2022-07-30T15:30:50.887Z,66.08
2022-07-30T15:33:27.918Z,65.99
2022-07-30T15:36:04.960Z,65.68
2022-07-30T15:38:42.306Z,65.13
2022-07-30T15:41:21.946Z,64.64
2022-07-30T15:43:58.628Z,64.76
2022-07-30T15:46:35.786Z,64.31
2022-07-30T15:49:12.718Z,65.18
2022-07-30T15:51:50.785Z,65.13
2022-07-30T15:54:27.635Z,65.43
2022-07-30T15:57:07.669Z,65.74
2022-07-30T15:59:44.476Z,66.41
2022-07-30T16:02:21.587Z,65.93
2022-07-30T16:04:58.336Z,66.45
2022-07-30T16:07:36.805Z,67.18
2022-07-30T16:10:14.057Z,68.05
2022-07-30T16:12:53.747Z,69.28
2022-07-30T16:15:30.769Z,69.71
2022-07-30T16:18:08.643Z,70.78
2022-07-30T16:20:45.330Z,71.65
2022-07-30T16:23:22.386Z,72.36
2022-07-30T16:25:59.067Z,72.66
2022-07-30T16:28:39.798Z,72.77
2022-07-30T16:31:16.566Z,73.34
2022-07-30T16:33:53.615Z,74.16
2022-07-30T16:36:30.457Z,74.96
2022-07-30T16:39:08.556Z,75.52
2022-07-30T16:41:45.639Z,75.90
2022-07-30T16:44:27.388Z,76.78
2022-07-30T16:47:04.209Z,77.19
2022-07-30T16:49:41.248Z,77.48
2022-07-30T16:52:18.616Z,79.42
2022-07-30T16:54:55.647Z,79.19
2022-07-30T16:57:32.388Z,79.53
2022-07-30T17:00:15.515Z,81.04
2022-07-30T17:02:52.647Z,81.52
2022-07-30T17:05:30.733Z,81.74
2022-07-30T17:08:09.905Z,82.62
2022-07-30T17:10:50.186Z,85.50
2022-07-30T17:13:27.321Z,85.62
2022-07-30T17:16:07.450Z,86.80
2022-07-30T17:18:44.307Z,87.73
2022-07-30T17:21:21.627Z,87.28
2022-07-30T17:23:58.317Z,88.92
2022-07-30T17:26:35.743Z,89.98
2022-07-30T17:29:14.852Z,90.93
2022-07-30T17:31:55.506Z,92.90
2022-07-30T17:34:32.491Z,94.01
2022-07-30T17:37:09.569Z,94.71
2022-07-30T17:40:19.160Z,94.96
2022-07-30T17:42:45.724Z,97.99
2022-07-30T17:45:22.447Z,97.02
2022-07-30T17:48:02.393Z,99.27
2022-07-30T17:50:39.459Z,100.00
2022-07-30T17:53:16.499Z,100.00
2022-07-30T17:55:57.561Z,100.00
2022-07-30T17:58:35.499Z,100.00
2022-07-30T18:01:12.325Z,100.00
2022-07-30T18:03:52.019Z,100.00
2022-07-30T18:06:28.780Z,100.00
2022-07-30T18:09:06.696Z,100.00
2022-07-30T18:11:44.094Z,100.00
2022-07-30T18:14:21.149Z,100.00
2022-07-30T18:16:58.949Z,100.00
2022-07-30T18:19:38.661Z,100.00
2022-07-30T18:22:29.103Z,100.00
2022-07-30T18:25:07.727Z,100.00
2022-07-30T18:27:44.520Z,100.00
2022-07-30T18:30:22.001Z,100.00
2022-07-30T18:32:58.832Z,100.00
2022-07-30T18:35:39.329Z,100.00
2022-07-30T18:38:16.130Z,100.00
2022-07-30T18:41:00.762Z,100.00
2022-07-30T18:43:48.161Z,100.00
2022-07-30T18:46:25.699Z,100.00
2022-07-30T18:49:15.445Z,100.00
2022-07-30T18:52:03.017Z,100.00
2022-07-30T18:54:40.916Z,100.00
2022-07-30T18:57:18.267Z,100.00
2022-07-30T18:59:55.073Z,100.00
2022-07-30T19:02:32.174Z,100.00
2022-07-30T19:05:11.284Z,100.00
2022-07-30T19:07:57.870Z,100.00
2022-07-30T19:10:36.104Z,100.00
2022-07-30T19:13:13.280Z,100.00
2022-07-30T19:15:50.246Z,100.00
2022-07-30T19:18:27.396Z,100.00
2022-07-30T19:21:04.336Z,100.00
2022-07-30T19:23:44.517Z,100.00
2022-07-30T19:26:21.816Z,100.00
2022-07-30T19:28:58.885Z,100.00
2022-07-30T19:31:35.648Z,100.00
